CheckWX is a tool to help pilots better visualize weather data.  It is not intended as a substitute for an official pre-flight weather briefing.

23:21:10 UTC

RJFT METAR
Kumamoto Airport
Kumamoto, Japan
Current

21 mins ago

RJFT 212300Z 14002KT 9999 SCT035 BKN070 07/03 Q1025
Observed
Jan-21 @ 23:00 UTC
Wind
  • 140° at 2 KTS
Visibility
10,000+ meters
Flight Rules
VFR
Cloud Levels
  • Scattered at 3,500' AGL
  • Broken at 7,000' AGL
Temperature
C / 45°F
Dewpoint
C / 37°F
Humidity
76%
Altimeter
30.27" Hg
Pressure
1024.92 hPa
Previous

1 hour ago

RJFT 212200Z 05002KT 9999 BKN035 BKN080 07/02 Q1025
Observed
Jan-21 @ 22:00 UTC
Wind
  • 050° at 2 KTS
Visibility
10,000+ meters
Flight Rules
VFR
Cloud Levels
  • Broken at 3,500' AGL
  • Broken at 8,000' AGL
Temperature
C / 45°F
Dewpoint
C / 36°F
Humidity
71%
Altimeter
30.27" Hg
Pressure
1024.92 hPa
Previous

2 hours ago

RJFT 212110Z 03002KT 9999 BKN035 BKN080 06/02 Q1025 RMK 5CU035 7AC080 A3028
Observed
Jan-21 @ 21:10 UTC
Wind
  • 030° at 2 KTS
Visibility
10,000+ meters
Flight Rules
VFR
Cloud Levels
  • Broken at 3,500' AGL
  • Broken at 8,000' AGL
Temperature
C / 43°F
Dewpoint
C / 36°F
Humidity
76%
Altimeter
30.27" Hg
Pressure
1024.92 hPa